Time;durP1;ratioP1;P1;durP2;ratioP2;P2;SDS_P1;SDS_P2;PMS_P1;PMS_P2;Temp;Humidity;BMP_temperature;BMP_pressure;BME280_temperature;BME280_humidity;BME280_pressure;Samples;Min_cycle;Max_cycle;Signal;HPM_P1;HPM_P2
2021/10/13 00:01:18;;;;;;;;;5.00;5.00;;;;;21.47;45.30;102041.09;5010026;28;51042;-51
2021/10/13 00:03:43;;;;;;;;;4.00;4.00;;;;;21.45;45.27;102043.16;5006260;28;51256;-53
2021/10/13 00:06:09;;;;;;;;;3.50;3.50;;;;;21.45;45.10;102045.91;4996033;28;51395;-51
2021/10/13 00:08:34;;;;;;;;;4.75;3.00;;;;;21.43;45.38;102046.13;5002071;28;52234;-51
2021/10/13 00:11:00;;;;;;;;;3.50;3.00;;;;;21.44;44.86;102052.50;5009896;28;51756;-51
2021/10/13 00:13:25;;;;;;;;;5.50;4.75;;;;;21.43;44.99;102042.53;4999443;28;51129;-53
2021/10/13 00:15:50;;;;;;;;;4.25;3.00;;;;;21.42;44.91;102049.09;5014174;28;50990;-52
2021/10/13 00:18:16;;;;;;;;;2.75;2.75;;;;;21.42;45.13;102049.94;5015171;28;51536;-50
2021/10/13 00:20:41;;;;;;;;;5.25;4.00;;;;;21.43;45.28;102045.28;5012700;28;50975;-51
2021/10/13 00:23:06;;;;;;;;;5.25;4.75;;;;;21.42;45.04;102035.31;4997147;28;51030;-52
2021/10/13 00:25:32;;;;;;;;;2.50;2.50;;;;;21.41;45.38;102041.88;5010931;28;51005;-45
2021/10/13 00:27:57;;;;;;;;;4.25;3.25;;;;;21.40;45.55;102046.53;4997081;28;51382;-46
2021/10/13 00:30:22;;;;;;;;;3.25;3.25;;;;;21.40;45.30;102052.06;5003722;28;51163;-49
2021/10/13 00:32:48;;;;;;;;;3.00;3.00;;;;;21.39;45.00;102057.78;5003683;28;51203;-48
2021/10/13 00:35:13;;;;;;;;;2.50;2.25;;;;;21.40;45.22;102062.22;4997229;28;51156;-48
2021/10/13 00:37:38;;;;;;;;;4.00;3.00;;;;;21.39;45.25;102063.28;5007998;28;50897;-51
2021/10/13 00:40:05;;;;;;;;;3.00;3.00;;;;;21.37;45.47;102060.72;5007364;28;51001;-48
2021/10/13 00:42:31;;;;;;;;;4.50;4.00;;;;;21.38;45.42;102075.38;5014027;28;51128;-48
2021/10/13 00:44:57;;;;;;;;;3.75;3.75;;;;;21.38;45.16;102069.84;4999327;28;51158;-49
2021/10/13 00:47:22;;;;;;;;;5.00;4.00;;;;;21.37;45.53;102068.16;5004157;28;51504;-51
2021/10/13 00:49:48;;;;;;;;;5.50;4.00;;;;;21.38;45.04;102075.38;5009866;28;51176;-52
2021/10/13 00:52:16;;;;;;;;;5.00;4.00;;;;;21.38;45.43;102076.22;4990967;28;51536;-51
2021/10/13 00:54:43;;;;;;;;;4.50;3.00;;;;;21.38;45.44;102075.38;5008275;28;51624;-50
2021/10/13 00:57:09;;;;;;;;;5.00;4.00;;;;;21.37;45.23;102070.91;5000421;28;51092;-53
2021/10/13 00:59:35;;;;;;;;;3.00;3.00;;;;;21.36;45.55;102072.78;4998747;28;50988;-51
2021/10/13 01:02:04;;;;;;;;;5.50;3.25;;;;;21.36;45.08;102083.81;5009928;28;51174;-51
2021/10/13 01:04:29;;;;;;;;;3.00;3.00;;;;;21.36;45.48;102086.56;5013314;28;51263;-53
2021/10/13 01:06:54;;;;;;;;;4.67;3.00;;;;;21.35;45.09;102081.25;5011823;28;51235;-52
2021/10/13 01:09:50;;;;;;;;;3.50;3.00;;;;;21.35;45.50;102084.84;5000688;28;51051;-47
2021/10/13 01:12:25;;;;;;;;;6.00;4.00;;;;;21.35;45.28;102087.59;5009517;28;51336;-51
2021/10/13 01:15:10;;;;;;;;;4.75;4.75;;;;;21.34;45.22;102085.91;5008918;28;51284;-50
2021/10/13 01:17:44;;;;;;;;;3.50;3.00;;;;;21.35;45.04;102093.13;5015054;28;50892;-50
2021/10/13 01:20:21;;;;;;;;;2.25;2.00;;;;;21.33;45.31;102089.72;5002506;28;51759;-50
2021/10/13 01:23:12;;;;;;;;;2.50;2.50;;;;;21.33;45.65;102087.81;5002072;28;51181;-47
2021/10/13 01:26:02;;;;;;;;;3.25;3.25;;;;;21.32;45.52;102080.59;5009009;28;50991;-47
2021/10/13 01:28:33;;;;;;;;;3.75;3.00;;;;;21.33;45.21;102086.97;5005754;28;51102;-45
2021/10/13 01:31:19;;;;;;;;;2.00;2.00;;;;;21.31;45.35;102083.56;5004550;28;51146;-48
2021/10/13 01:33:59;;;;;;;;;3.00;2.00;;;;;21.30;45.28;102095.63;5005785;28;51109;-47
2021/10/13 01:36:34;;;;;;;;;4.00;3.00;;;;;21.29;45.15;102092.03;4998812;28;51007;-51
2021/10/13 01:39:01;;;;;;;;;4.00;3.00;;;;;21.29;45.71;102094.78;5006352;28;50980;-47
2021/10/13 01:41:28;;;;;;;;;3.25;3.00;;;;;21.28;45.31;102084.81;5007761;28;51397;-49
2021/10/13 01:43:56;;;;;;;;;1.75;1.75;;;;;21.28;45.17;102093.09;5011561;28;51253;-50
2021/10/13 01:46:22;;;;;;;;;3.00;2.50;;;;;21.29;45.74;102089.28;5017263;28;50999;-52
2021/10/13 01:48:49;;;;;;;;;2.00;2.00;;;;;21.28;45.37;102093.09;5005701;28;50986;-51
2021/10/13 01:51:16;;;;;;;;;5.00;2.50;;;;;21.27;45.71;102087.78;5007783;28;52103;-52
2021/10/13 01:53:43;;;;;;;;;2.00;2.00;;;;;21.27;45.28;102091.38;5008427;28;51173;-49
2021/10/13 01:56:09;;;;;;;;;3.50;3.50;;;;;21.27;45.38;102091.38;5016244;28;51019;-48
2021/10/13 01:58:36;;;;;;;;;2.00;2.00;;;;;21.27;45.24;102080.34;5013023;28;51100;-48
2021/10/13 02:01:03;;;;;;;;;5.00;3.00;;;;;21.27;45.21;102088.63;4995904;28;52658;-49
2021/10/13 02:03:32;;;;;;;;;2.25;2.25;;;;;21.27;45.46;102096.03;5016168;28;51316;-48
2021/10/13 02:06:03;;;;;;;;;4.25;2.00;;;;;21.27;45.67;102096.03;5003717;28;51178;-52
2021/10/13 02:08:29;;;;;;;;;2.00;2.00;;;;;21.26;45.79;102099.84;5007183;28;51283;-46
2021/10/13 02:10:57;;;;;;;;;1.00;1.00;;;;;21.25;45.41;102098.09;5016863;28;50974;-50
2021/10/13 02:13:24;;;;;;;;;3.00;2.00;;;;;21.24;45.65;102102.75;5010375;28;51468;-51
2021/10/13 02:15:52;;;;;;;;;4.25;2.50;;;;;21.25;45.19;102100.84;5014353;28;51189;-51
2021/10/13 02:18:24;;;;;;;;;3.00;3.00;;;;;21.25;45.10;102111.88;5005579;28;51252;-50
2021/10/13 02:20:50;;;;;;;;;2.00;2.00;;;;;21.23;45.33;102106.56;5002195;28;51065;-49
2021/10/13 02:23:18;;;;;;;;;2.75;2.75;;;;;21.24;45.71;102101.91;5016506;28;51051;-51
2021/10/13 02:25:48;;;;;;;;;1.25;1.25;;;;;21.23;45.23;102114.81;5015914;28;51034;-47
2021/10/13 02:28:31;;;;;;;;;2.75;2.75;;;;;21.23;45.66;102109.31;5008724;28;51385;-46
2021/10/13 02:30:56;;;;;;;;;2.00;2.00;;;;;21.22;45.18;102115.88;4997727;28;51973;-51
2021/10/13 02:33:22;;;;;;;;;1.50;1.00;;;;;21.21;45.60;102116.06;5005861;28;51209;-51
2021/10/13 02:35:47;;;;;;;;;3.25;2.00;;;;;21.21;45.51;102114.16;5004252;28;51702;-51
2021/10/13 02:38:13;;;;;;;;;2.50;2.00;;;;;21.21;45.30;102122.44;5010540;28;51110;-47
2021/10/13 02:40:38;;;;;;;;;1.00;1.00;;;;;21.21;45.63;102122.44;5016175;28;51965;-51
2021/10/13 02:43:05;;;;;;;;;1.00;1.00;;;;;21.21;45.60;102113.31;5000504;28;51162;-50
2021/10/13 02:45:35;;;;;;;;;1.25;1.25;;;;;21.21;45.59;102122.44;4997694;28;51119;-49
2021/10/13 02:48:11;;;;;;;;;1.75;1.75;;;;;21.20;45.51;102125.38;5007814;28;51248;-49
2021/10/13 02:50:56;;;;;;;;;1.75;1.75;;;;;21.21;45.18;102127.09;5008350;28;51381;-47
2021/10/13 02:53:34;;;;;;;;;3.25;2.00;;;;;21.20;45.18;102133.66;5000852;28;51376;-46
2021/10/13 02:56:12;;;;;;;;;1.00;1.00;;;;;21.18;45.19;102136.63;5006270;28;51169;-49
2021/10/13 02:58:46;;;;;;;;;4.00;2.50;;;;;21.18;45.59;102136.63;5000920;28;51303;-47
2021/10/13 03:01:16;;;;;;;;;2.00;2.00;;;;;21.17;45.25;102134.91;5011606;28;52759;-47
2021/10/13 03:03:50;;;;;;;;;3.25;3.00;;;;;21.18;45.58;102139.38;5008285;28;51232;-46
2021/10/13 03:06:17;;;;;;;;;2.50;2.00;;;;;21.16;45.77;102137.88;5015841;28;51174;-46
2021/10/13 03:08:47;;;;;;;;;1.00;1.00;;;;;21.17;45.09;102134.06;5010171;28;51171;-46
2021/10/13 03:11:16;;;;;;;;;2.00;2.00;;;;;21.16;45.60;102144.22;5001550;28;52238;-48
2021/10/13 03:13:44;;;;;;;;;1.25;1.00;;;;;21.17;45.35;102150.59;5001059;28;51275;-46
2021/10/13 03:16:11;;;;;;;;;2.00;2.00;;;;;21.16;45.57;102140.63;5002283;28;51417;-47
2021/10/13 03:18:39;;;;;;;;;2.25;1.00;;;;;21.15;45.02;102137.00;5001656;28;51072;-46
2021/10/13 03:21:06;;;;;;;;;1.00;1.00;;;;;21.14;45.67;102135.28;4981850;28;51064;-48
2021/10/13 03:23:32;;;;;;;;;1.00;1.00;;;;;21.14;45.17;102134.44;5016219;28;51157;-49
2021/10/13 03:26:05;;;;;;;;;1.50;1.50;;;;;21.14;45.08;102140.78;5015488;28;51237;-46
2021/10/13 03:28:32;;;;;;;;;1.00;1.00;;;;;21.14;45.61;102145.44;4998430;28;51409;-52
2021/10/13 03:30:58;;;;;;;;;1.00;1.00;;;;;21.13;45.22;102144.59;5012416;28;52107;-48
2021/10/13 03:33:23;;;;;;;;;2.75;1.00;;;;;21.12;45.60;102147.56;4993808;28;51041;-48
2021/10/13 03:35:49;;;;;;;;;2.00;2.00;;;;;21.12;45.11;102156.66;5012260;28;51157;-46
2021/10/13 03:38:15;;;;;;;;;2.50;1.00;;;;;21.11;45.11;102145.84;5014490;28;52109;-48
2021/10/13 03:40:40;;;;;;;;;1.75;1.75;;;;;21.11;45.11;102146.69;5015007;28;51193;-47
2021/10/13 03:43:08;;;;;;;;;1.50;1.50;;;;;21.10;45.12;102144.16;5010278;28;51113;-45
2021/10/13 03:45:33;;;;;;;;;0.75;0.75;;;;;21.11;45.11;102152.22;5004697;28;51106;-48
2021/10/13 03:47:58;;;;;;;;;2.00;1.25;;;;;21.10;45.11;102155.16;4997686;28;51357;-50
2021/10/13 03:50:24;;;;;;;;;2.00;2.00;;;;;21.10;45.72;102150.50;5009941;28;51680;-51
2021/10/13 03:52:50;;;;;;;;;1.00;1.00;;;;;21.10;45.68;102153.25;4996468;28;51204;-46
2021/10/13 03:55:17;;;;;;;;;0.75;0.75;;;;;21.10;45.25;102149.66;5008339;28;51210;-47
2021/10/13 03:57:43;;;;;;;;;2.00;2.00;;;;;21.09;45.47;102147.97;5010996;28;51201;-46
2021/10/13 04:00:15;;;;;;;;;1.00;1.00;;;;;21.09;45.06;102145.19;5009557;28;51030;-52
2021/10/13 04:02:41;;;;;;;;;0.75;0.75;;;;;21.09;45.14;102154.31;5007447;28;51263;-50
2021/10/13 04:05:07;;;;;;;;;1.75;1.00;;;;;21.08;45.30;102160.88;5008678;28;51065;-52
2021/10/13 04:07:33;;;;;;;;;1.25;1.25;;;;;21.08;45.50;102160.03;5007269;28;51419;-49
2021/10/13 04:09:59;;;;;;;;;2.00;2.00;;;;;21.08;45.11;102162.78;5008558;28;51856;-51
2021/10/13 04:12:24;;;;;;;;;1.25;1.00;;;;;21.07;45.46;102163.84;5001556;28;51098;-47
2021/10/13 04:14:51;;;;;;;;;2.00;2.00;;;;;21.07;45.00;102183.97;5010706;28;51015;-49
2021/10/13 04:17:17;;;;;;;;;1.00;1.00;;;;;21.06;45.34;102174.00;4997532;28;51170;-47
2021/10/13 04:19:43;;;;;;;;;0.75;0.75;;;;;21.07;45.43;102177.63;5003551;28;51737;-49
2021/10/13 04:22:08;;;;;;;;;2.00;2.00;;;;;21.06;45.18;102185.03;4998101;28;51156;-50
2021/10/13 04:24:33;;;;;;;;;1.00;1.00;;;;;21.06;45.14;102192.44;4997166;28;50948;-49
2021/10/13 04:26:59;;;;;;;;;1.00;1.00;;;;;21.05;45.02;102191.59;5004916;28;50944;-49
2021/10/13 04:29:24;;;;;;;;;0.00;0.00;;;;;21.06;45.03;102196.03;5008515;28;50968;-48
2021/10/13 04:31:49;;;;;;;;;2.25;1.00;;;;;21.06;45.63;102195.19;5004502;28;51062;-51
2021/10/13 04:34:15;;;;;;;;;1.00;0.50;;;;;21.05;45.41;102191.59;5009196;28;51313;-49
2021/10/13 04:36:40;;;;;;;;;0.50;0.50;;;;;21.06;45.55;102190.53;5008807;28;51172;-48
2021/10/13 04:39:06;;;;;;;;;1.00;1.00;;;;;21.06;45.42;102198.78;5000558;28;51078;-53
2021/10/13 04:41:33;;;;;;;;;1.00;0.75;;;;;21.05;45.08;102191.59;5007145;28;51412;-52
2021/10/13 04:43:58;;;;;;;;;2.00;1.00;;;;;21.04;45.17;102198.97;5003755;28;51113;-49
2021/10/13 04:46:24;;;;;;;;;1.75;1.75;;;;;21.02;45.47;102200.22;4997270;28;51470;-48
2021/10/13 04:48:49;;;;;;;;;1.75;1.75;;;;;21.03;45.47;102207.44;5009524;28;52049;-50
2021/10/13 04:51:14;;;;;;;;;4.00;1.00;;;;;21.02;45.67;102202.97;5010759;28;51175;-49
2021/10/13 04:53:40;;;;;;;;;1.00;1.00;;;;;21.02;45.07;102208.47;5010929;28;51136;-51
2021/10/13 04:56:05;;;;;;;;;2.75;1.25;;;;;21.01;45.19;102207.63;4998225;28;51053;-51
2021/10/13 04:58:30;;;;;;;;;3.00;0.00;;;;;21.01;45.27;102212.28;4999402;28;51217;-47
2021/10/13 05:00:56;;;;;;;;;1.00;1.00;;;;;21.01;45.41;102212.28;5000188;28;51947;-52
2021/10/13 05:03:21;;;;;;;;;2.00;2.00;;;;;21.01;44.98;102210.38;5015512;28;50976;-48
2021/10/13 05:05:46;;;;;;;;;1.00;1.00;;;;;21.01;45.26;102210.38;5014016;28;51027;-50
2021/10/13 05:08:12;;;;;;;;;0.50;0.50;;;;;21.02;45.31;102211.22;5015384;28;51726;-51
2021/10/13 05:10:38;;;;;;;;;1.50;1.50;;;;;21.01;45.47;102206.78;5004532;28;51134;-51
2021/10/13 05:13:04;;;;;;;;;0.00;0.00;;;;;21.01;45.51;102217.78;5015227;28;51351;-50
2021/10/13 05:15:29;;;;;;;;;0.75;0.75;;;;;21.01;45.04;102226.06;5003130;28;51106;-50
2021/10/13 05:17:55;;;;;;;;;1.00;1.00;;;;;21.00;45.54;102222.44;5005510;28;51837;-47
2021/10/13 05:20:20;;;;;;;;;2.00;0.25;;;;;21.01;45.46;102231.56;5011802;28;51083;-47
2021/10/13 05:22:45;;;;;;;;;1.00;1.00;;;;;21.00;45.59;102233.47;5008415;28;51030;-48
2021/10/13 05:25:11;;;;;;;;;0.00;0.00;;;;;21.01;45.54;102234.31;5007630;28;51111;-50
2021/10/13 05:27:36;;;;;;;;;0.50;0.50;;;;;21.01;45.46;102232.41;5007523;28;52073;-50
2021/10/13 05:30:03;;;;;;;;;1.75;1.00;;;;;21.00;45.35;102238.97;5002390;28;51147;-52
2021/10/13 05:32:29;;;;;;;;;0.50;0.50;;;;;21.00;45.38;102244.50;5009061;28;51319;-53
2021/10/13 05:34:54;;;;;;;;;2.25;1.00;;;;;21.01;45.66;102243.44;5010070;28;51299;-54
2021/10/13 05:37:19;;;;;;;;;2.00;1.25;;;;;21.02;45.27;102238.78;5001464;28;51820;-56
2021/10/13 05:39:44;;;;;;;;;1.50;1.50;;;;;21.01;45.30;102245.34;5010011;28;52103;-52
2021/10/13 05:42:10;;;;;;;;;1.25;1.25;;;;;21.02;45.65;102247.91;5013636;28;51066;-53
2021/10/13 05:44:35;;;;;;;;;0.25;0.25;;;;;21.02;45.43;102242.38;5008279;28;51135;-55
2021/10/13 05:47:01;;;;;;;;;2.00;2.00;;;;;21.02;45.70;102255.31;5016353;28;51716;-55
2021/10/13 05:49:26;;;;;;;;;3.00;1.50;;;;;21.02;45.57;102255.31;5000406;28;51420;-53
2021/10/13 05:51:51;;;;;;;;;2.50;2.00;;;;;21.01;45.26;102248.94;5010359;28;51094;-54
2021/10/13 05:54:17;;;;;;;;;3.75;2.75;;;;;21.02;45.25;102242.38;4996780;28;51461;-52
2021/10/13 05:56:42;;;;;;;;;3.75;3.00;;;;;21.02;45.53;102245.16;5007237;28;52181;-53
2021/10/13 05:59:08;;;;;;;;;4.25;2.25;;;;;21.03;45.56;102251.50;5017818;28;51003;-53
2021/10/13 06:01:33;;;;;;;;;4.25;2.00;;;;;21.03;45.63;102246.84;5017058;28;51340;-54
2021/10/13 06:03:59;;;;;;;;;1.00;1.00;;;;;21.04;45.96;102261.47;5016875;28;50923;-52
2021/10/13 06:06:24;;;;;;;;;4.50;3.00;;;;;21.03;46.34;102260.63;5008037;28;51097;-51
2021/10/13 06:08:49;;;;;;;;;5.25;3.00;;;;;21.05;46.24;102263.22;5001680;28;51137;-57
2021/10/13 06:11:16;;;;;;;;;3.50;3.00;;;;;21.04;45.77;102262.31;5007663;28;51102;-53
2021/10/13 06:13:42;;;;;;;;;4.75;1.00;;;;;21.03;46.09;102260.63;5002270;28;51165;-55
2021/10/13 06:16:09;;;;;;;;;5.25;2.75;;;;;21.04;46.07;102261.47;5015935;28;51092;-52
2021/10/13 06:18:35;;;;;;;;;3.50;2.00;;;;;21.06;45.95;102264.06;5003666;28;51400;-53
2021/10/13 06:21:00;;;;;;;;;6.50;2.25;;;;;21.06;45.99;102270.44;5013671;28;51051;-49
2021/10/13 06:23:25;;;;;;;;;6.00;3.50;;;;;21.06;46.11;102275.09;5008860;28;51245;-52
2021/10/13 06:25:52;;;;;;;;;3.25;2.00;;;;;21.06;46.13;102284.22;5009232;28;51714;-52
2021/10/13 06:28:18;;;;;;;;;3.25;2.00;;;;;21.07;45.99;102283.16;4998649;28;51286;-52
2021/10/13 06:30:43;;;;;;;;;5.00;2.00;;;;;21.07;45.49;102294.19;5002591;28;51166;-53
2021/10/13 06:33:09;;;;;;;;;4.75;2.50;;;;;21.08;45.38;102295.88;5003668;28;51161;-56
2021/10/13 06:35:35;;;;;;;;;2.00;2.00;;;;;21.09;45.65;102293.97;5002272;28;51170;-53
2021/10/13 06:38:00;;;;;;;;;4.00;3.00;;;;;21.09;45.75;102288.47;5012232;28;51193;-51
2021/10/13 06:40:26;;;;;;;;;3.00;3.00;;;;;21.09;45.52;102288.47;5000629;28;51271;-51
2021/10/13 06:42:51;;;;;;;;;4.00;1.75;;;;;21.10;45.49;102295.69;5007810;28;51085;-51
2021/10/13 06:45:17;;;;;;;;;3.25;2.00;;;;;21.10;45.67;102291.03;5003965;28;51116;-51
2021/10/13 06:47:42;;;;;;;;;4.00;3.00;;;;;21.10;45.30;102291.03;4982090;28;51159;-53
2021/10/13 06:50:09;;;;;;;;;3.00;3.00;;;;;21.11;45.50;102294.63;5006784;28;51336;-53
2021/10/13 06:52:34;;;;;;;;;2.00;2.00;;;;;21.12;45.72;102296.34;5014809;28;51150;-52
2021/10/13 06:55:00;;;;;;;;;2.50;2.00;;;;;21.12;45.60;102296.34;5011398;28;51135;-51
2021/10/13 06:57:25;;;;;;;;;2.00;2.00;;;;;21.12;45.87;102299.97;5007895;28;51137;-52
2021/10/13 06:59:50;;;;;;;;;2.50;2.00;;;;;21.14;45.80;102305.28;5007868;28;51197;-55
2021/10/13 07:02:16;;;;;;;;;4.00;2.50;;;;;21.12;45.40;102297.19;5011088;28;51339;-51
2021/10/13 07:04:41;;;;;;;;;5.25;2.00;;;;;21.11;44.92;102301.00;5016854;28;51037;-52
2021/10/13 07:07:07;;;;;;;;;2.00;2.00;;;;;21.11;45.18;102298.25;5017053;28;51102;-51
2021/10/13 07:09:33;;;;;;;;;3.00;2.50;;;;;21.08;45.15;102306.91;5017033;28;51062;-52
2021/10/13 07:11:59;;;;;;;;;4.75;1.50;;;;;21.07;44.79;102318.97;5017219;28;51394;-52
2021/10/13 07:14:24;;;;;;;;;4.25;3.00;;;;;21.07;44.69;102320.88;5016807;28;51041;-51
2021/10/13 07:16:50;;;;;;;;;2.50;2.50;;;;;21.05;44.84;102318.31;5015459;28;51127;-53
2021/10/13 07:19:15;;;;;;;;;4.75;2.00;;;;;21.05;45.13;102321.06;5016755;28;51062;-53
2021/10/13 07:21:41;;;;;;;;;4.25;3.00;;;;;21.04;45.10;102322.09;5017162;28;51043;-52
2021/10/13 07:24:06;;;;;;;;;3.25;2.75;;;;;21.04;44.83;102322.09;5015686;28;52044;-51
2021/10/13 07:26:33;;;;;;;;;2.50;2.50;;;;;21.03;44.91;102325.91;5010652;28;51013;-52
2021/10/13 07:28:59;;;;;;;;;2.50;2.00;;;;;21.03;44.73;102323.13;4996604;28;51175;-52
2021/10/13 07:31:25;;;;;;;;;4.00;1.75;;;;;21.03;44.67;102334.16;4996741;28;51421;-52
2021/10/13 07:33:50;;;;;;;;;3.50;3.00;;;;;21.01;45.02;102337.09;4996574;28;51041;-52
2021/10/13 07:36:15;;;;;;;;;2.50;2.50;;;;;21.02;44.64;102346.22;4978921;28;51134;-53
2021/10/13 07:38:42;;;;;;;;;5.25;4.25;;;;;21.02;44.84;102348.97;4996683;28;51225;-53
2021/10/13 07:41:08;;;;;;;;;4.00;2.00;;;;;21.01;45.14;102341.75;4979411;28;51297;-53
2021/10/13 07:43:34;;;;;;;;;2.50;2.50;;;;;21.02;45.09;102346.22;4996379;28;51864;-50
2021/10/13 07:45:59;;;;;;;;;4.00;2.00;;;;;21.02;44.83;102344.31;4996488;28;51471;-53
2021/10/13 07:48:25;;;;;;;;;2.25;2.25;;;;;21.03;45.01;102345.19;4996483;28;51310;-54
2021/10/13 07:50:51;;;;;;;;;2.00;2.00;;;;;21.02;44.70;102347.06;4996761;28;51333;-51
2021/10/13 07:53:17;;;;;;;;;4.25;2.00;;;;;21.04;45.06;102344.13;4996263;28;51848;-53
2021/10/13 07:55:42;;;;;;;;;4.75;3.25;;;;;21.03;44.99;102345.19;4996180;28;50978;-52
2021/10/13 07:58:08;;;;;;;;;2.50;1.75;;;;;21.02;44.83;102347.06;4996402;28;51032;-52
2021/10/13 08:00:33;;;;;;;;;3.75;2.25;;;;;21.01;44.93;102345.38;4996271;28;51179;-52
2021/10/13 08:02:58;;;;;;;;;5.00;4.50;;;;;21.01;45.02;102350.88;4996263;28;51254;-52
2021/10/13 08:05:24;;;;;;;;;2.25;2.25;;;;;21.00;44.82;102345.56;4996384;28;50992;-52
2021/10/13 08:07:49;;;;;;;;;3.25;3.25;;;;;21.01;44.61;102358.28;4996491;28;51126;-54
2021/10/13 08:10:15;;;;;;;;;5.50;4.50;;;;;21.01;44.88;102358.28;4996524;28;51319;-54
2021/10/13 08:12:41;;;;;;;;;8.25;4.50;;;;;21.00;44.91;102362.94;4995745;28;52191;-54
2021/10/13 08:15:07;;;;;;;;;10.00;4.75;;;;;21.02;44.86;102362.75;4996204;28;51159;-56
2021/10/13 08:17:32;;;;;;;;;7.25;5.00;;;;;21.01;44.50;102361.91;4996257;28;51001;-54
2021/10/13 08:19:57;;;;;;;;;6.00;6.00;;;;;21.01;44.51;102367.41;4978581;28;51781;-54
2021/10/13 08:22:23;;;;;;;;;8.25;6.75;;;;;21.03;44.81;102367.22;4996005;28;51026;-52
2021/10/13 08:24:49;;;;;;;;;8.50;6.25;;;;;21.04;44.65;102360.66;4995783;28;51174;-54
2021/10/13 08:27:14;;;;;;;;;7.00;6.00;;;;;21.03;44.85;102362.56;5007520;28;51286;-54
2021/10/13 08:29:40;;;;;;;;;8.25;5.50;;;;;21.05;44.83;102362.41;5015970;28;51148;-52
2021/10/13 08:32:06;;;;;;;;;11.75;8.00;;;;;21.05;44.30;102362.41;5015675;28;52108;-52
2021/10/13 08:34:31;;;;;;;;;14.00;11.00;;;;;21.06;44.63;102364.09;5015528;28;51023;-49
2021/10/13 08:36:57;;;;;;;;;11.25;9.00;;;;;21.07;44.03;102370.47;5015439;28;51374;-48
2021/10/13 08:39:22;;;;;;;;;9.00;6.75;;;;;21.07;44.15;102371.31;5015549;28;51080;-46
2021/10/13 08:41:47;;;;;;;;;9.50;8.50;;;;;21.05;44.50;102370.66;5015557;28;51772;-51
2021/10/13 08:44:14;;;;;;;;;8.75;7.00;;;;;21.06;43.81;102372.38;4997842;28;51015;-53
2021/10/13 08:46:40;;;;;;;;;7.25;7.00;;;;;21.04;43.73;102372.53;5015361;28;51047;-53
2021/10/13 08:49:05;;;;;;;;;8.25;6.75;;;;;21.04;43.08;102379.94;5013998;28;51200;-53
2021/10/13 08:51:38;;;;;;;;;8.00;8.00;;;;;21.03;43.55;102373.59;4997013;28;52033;-54
2021/10/13 08:54:05;;;;;;;;;5.75;5.00;;;;;21.04;43.31;102371.69;5009074;28;51616;-50
2021/10/13 08:56:31;;;;;;;;;7.25;6.75;;;;;21.05;43.12;102378.94;5010902;28;51212;-50
2021/10/13 08:58:56;;;;;;;;;7.25;6.00;;;;;21.04;42.69;102379.94;5014152;28;51168;-50
2021/10/13 09:01:21;;;;;;;;;9.75;7.50;;;;;21.05;42.55;102395.47;5011478;28;51109;-51
2021/10/13 09:03:56;;;;;;;;;9.50;7.25;;;;;21.06;42.47;102380.63;5013027;28;50951;-53
2021/10/13 09:06:23;;;;;;;;;5.25;5.25;;;;;21.08;42.66;102391.47;5004948;28;51225;-52
2021/10/13 09:09:00;;;;;;;;;4.25;4.00;;;;;21.11;42.11;102388.31;5004962;28;52222;-52
2021/10/13 09:11:29;;;;;;;;;4.75;4.00;;;;;21.11;42.34;102383.66;5012600;28;50962;-51
2021/10/13 09:14:09;;;;;;;;;5.25;5.25;;;;;21.14;42.27;102387.94;5002821;28;51259;-54
2021/10/13 09:17:07;;;;;;;;;8.25;4.50;;;;;21.15;42.12;102384.97;4999058;28;51186;-51
2021/10/13 09:19:50;;;;;;;;;5.75;4.75;;;;;21.18;42.15;102387.38;5004008;28;51059;-50
2021/10/13 09:22:18;;;;;;;;;5.00;5.00;;;;;21.22;42.06;102390.59;4995497;28;52900;-53
2021/10/13 09:24:48;;;;;;;;;6.50;6.50;;;;;21.26;41.58;102386.47;5006368;28;51344;-53
2021/10/13 09:27:16;;;;;;;;;3.00;2.00;;;;;21.28;41.87;102387.13;4999360;28;51322;-54
2021/10/13 09:29:43;;;;;;;;;5.50;3.75;;;;;21.29;41.45;102386.09;5005067;28;52662;-51
2021/10/13 09:32:09;;;;;;;;;6.00;4.50;;;;;21.31;41.86;102375.72;5001888;28;51760;-55
2021/10/13 09:34:34;;;;;;;;;5.00;4.50;;;;;21.32;41.64;102381.03;5004825;28;51256;-56
2021/10/13 09:37:00;;;;;;;;;4.00;4.00;;;;;21.33;41.71;102387.41;5004867;28;51707;-58
2021/10/13 09:39:30;;;;;;;;;8.75;3.00;;;;;21.36;41.38;102391.66;5001155;28;51211;-55
2021/10/13 09:42:00;;;;;;;;;3.00;3.00;;;;;21.38;41.46;102397.88;5005121;28;51802;-55
2021/10/13 09:44:28;;;;;;;;;2.75;2.25;;;;;21.39;41.81;102383.88;5003610;28;51283;-55
2021/10/13 09:46:59;;;;;;;;;7.25;4.75;;;;;21.42;42.10;102389.00;5004873;28;51206;-55
2021/10/13 09:49:30;;;;;;;;;5.00;2.75;;;;;21.44;42.11;102384.16;5010642;28;51190;-54
2021/10/13 09:52:09;;;;;;;;;5.00;4.00;;;;;21.46;41.94;102392.22;5011549;28;51856;-60
2021/10/13 09:54:35;;;;;;;;;5.25;3.75;;;;;21.48;41.40;102401.19;5002309;28;51133;-53
2021/10/13 09:57:16;;;;;;;;;5.25;4.50;;;;;21.50;41.82;102396.34;5005801;28;51273;-53
2021/10/13 10:00:02;;;;;;;;;3.25;3.25;;;;;21.52;41.33;102399.75;5007963;28;51373;-56
2021/10/13 10:02:37;;;;;;;;;4.50;4.00;;;;;21.52;41.69;102397.84;4995361;28;51300;-54
2021/10/13 10:05:07;;;;;;;;;4.75;4.00;;;;;21.55;41.73;102399.34;5007722;28;51010;-54
2021/10/13 10:07:34;;;;;;;;;6.25;4.00;;;;;21.56;41.26;102399.16;5006067;28;52433;-54
2021/10/13 10:10:10;;;;;;;;;4.75;4.50;;;;;21.58;41.38;102401.75;5008521;28;51358;-54
2021/10/13 10:13:10;;;;;;;;;4.25;4.25;;;;;21.60;41.48;102397.75;5004606;28;52220;-55
2021/10/13 10:15:46;;;;;;;;;3.00;3.00;;;;;21.60;41.09;102402.41;5008600;28;51107;-54
2021/10/13 10:18:26;;;;;;;;;4.25;3.00;;;;;21.61;41.56;102399.44;5011025;28;51030;-55
2021/10/13 10:20:53;;;;;;;;;4.00;4.00;;;;;21.63;41.34;102393.75;5003399;28;51243;-53
2021/10/13 10:23:33;;;;;;;;;3.25;3.25;;;;;21.64;41.18;102400.97;4999669;28;51684;-54
2021/10/13 10:26:20;;;;;;;;;5.00;3.00;;;;;21.66;41.51;102398.84;5000449;28;51196;-57
2021/10/13 10:28:58;;;;;;;;;3.50;3.00;;;;;21.68;41.28;102396.78;5004630;28;51384;-54
2021/10/13 10:31:26;;;;;;;;;4.25;3.00;;;;;21.68;41.00;102396.78;5000113;28;51186;-57
2021/10/13 10:34:06;;;;;;;;;5.75;4.75;;;;;21.69;41.00;102386.59;5002672;28;51045;-55
2021/10/13 10:36:34;;;;;;;;;4.00;3.50;;;;;21.70;41.18;102388.31;5005464;28;51075;-54
2021/10/13 10:39:00;;;;;;;;;5.00;2.00;;;;;21.70;41.17;102388.31;5010360;28;51338;-55
2021/10/13 10:41:43;;;;;;;;;5.50;2.75;;;;;21.69;40.63;102392.97;5004229;28;51180;-54
2021/10/13 10:44:31;;;;;;;;;2.50;2.50;;;;;21.70;40.56;102394.69;5005755;28;51889;-54
2021/10/13 10:47:08;;;;;;;;;5.50;4.00;;;;;21.71;40.74;102390.03;5013435;28;51535;-53
2021/10/13 10:49:55;;;;;;;;;1.75;1.75;;;;;21.73;40.91;102376.88;5002980;28;51301;-53
2021/10/13 10:52:25;;;;;;;;;5.00;3.00;;;;;21.75;40.89;102377.53;5006938;28;51084;-50
2021/10/13 10:54:57;;;;;;;;;3.75;3.75;;;;;21.77;40.40;102369.91;5011533;28;52164;-53
2021/10/13 10:57:34;;;;;;;;;4.75;2.50;;;;;21.78;40.32;102378.03;5009465;28;51284;-55
2021/10/13 11:00:05;;;;;;;;;2.00;2.00;;;;;21.79;40.85;102382.50;5008862;28;51444;-60
2021/10/13 11:02:31;;;;;;;;;3.25;2.50;;;;;21.78;40.71;102380.78;5010150;28;50979;-55
2021/10/13 11:05:08;;;;;;;;;4.75;2.50;;;;;21.80;40.77;102377.84;5004648;28;52057;-56
2021/10/13 11:07:34;;;;;;;;;3.25;3.00;;;;;21.81;40.46;102374.88;5013969;28;51396;-56
2021/10/13 11:10:05;;;;;;;;;2.50;2.50;;;;;21.83;40.88;102383.81;5016562;28;51399;-57
2021/10/13 11:12:54;;;;;;;;;6.00;3.75;;;;;21.84;40.41;102391.03;5016356;28;51156;-57
2021/10/13 11:15:25;;;;;;;;;3.00;3.00;;;;;21.85;40.91;102387.22;5016431;28;51102;-57
2021/10/13 11:17:51;;;;;;;;;3.25;1.50;;;;;21.86;40.43;102394.44;5016311;28;51384;-55
2021/10/13 11:20:23;;;;;;;;;2.75;2.00;;;;;21.86;40.74;102399.09;5016564;28;51379;-56
2021/10/13 11:23:03;;;;;;;;;2.00;2.00;;;;;21.87;40.40;102395.28;4998860;28;51404;-56
2021/10/13 11:25:30;;;;;;;;;2.50;2.00;;;;;21.86;40.45;102390.81;5016136;28;51966;-56
2021/10/13 11:28:11;;;;;;;;;3.00;2.00;;;;;21.86;40.99;102399.97;4998332;28;51441;-56
2021/10/13 11:30:36;;;;;;;;;3.75;2.50;;;;;21.86;40.67;102397.19;4996421;28;51108;-54